Aérodrome :
LOGIN :

S'inscrire | Disclaimer

   EN    FR    IT 

 










Légende :    VFR   VFR Marginal   IFR   IFR Intensif   IFR Très Intensif
Visi : 
Plafond : 
>= 8 km
>= 3000ft
5 à 8 km
1000 à 3000 ft
1500m à 5 km
500 à 1000 ft
800 à 1500m
200 à 500 ft
< 800m
< 200 ft
Symboles :   Orages  Brouillard  Fortes neiges  Fortes précipitations  Vent > 20 kt
SIGMETs :   Divers  Orages  Givrage  Turbulence  Onde Orograph.  Cendres Volcan.






- Altitude de l'aérodrome : 1299 ft


EDTY - Adolf Würth

DERNIER METAR :
  • 220120Z AUTO 23010KT 9999 // BKN044/// OVC062/// 09/05 Q1006

METARs EXPIRÉS :
  • 220050Z AUTO 24009KT 9999 // BKN047/// OVC053/// 09/04 Q1007
  • 220020Z AUTO 25014KT 9999 // FEW041/// OVC049/// 10/03 Q1008
  • 212350Z AUTO 20003KT 140V250 9999 // FEW049/// BKN063/// OVC073/// 10/01 Q1008
  • 212320Z AUTO 23005KT 9999 // OVC058/// 10/02 Q1009
  • 212250Z AUTO 22004KT 190V250 9999 // BKN058/// OVC071/// 09/02 Q1010
  • 212220Z AUTO 22006KT 190V270 9999 // SCT045/// BKN054/// OVC061/// 10/01 Q1010
  • 212150Z AUTO 22005KT 180V250 9999 // FEW014/// OVC047/// 10/02 Q1011
  • 212120Z AUTO 23007KT 200V270 9999 // FEW058/// OVC067/// 10/01 Q1011
  • 212050Z AUTO 23005KT 200V260 9999 // OVC089/// 09/02 Q1012

TAF TAF EDTY
Valide du 21 à 18h jusqu'au 22 à 03h UTC


211700Z 2118/2203 VRB03KT CAVOK
PROB40
TEMPO 2120/2203 RA
BECMG 2121/2123 20008KT



MET'MAP, la Météo Aéronautique d'un coup d'oeil ! - Copyright ORBIFLY Décembre 2007 - Disclaimer

ORBIFLY MET'MAP TEAM :

Programmation & Développement : Alexandra Zaïnal
Sur une idée originale de : Baudouin d'Aumeries
Soutien technique & logistique : Manuel Goepfert
Assistance : Marc-Olivier Méhu




SOURCES & CREDITS :

   NOAA